This is the latest recevied weather packets stored in our database for station/object OK1ZXS-6. If no packets are shown the sender has not sent any weather packets the latest 1 day(s).
| Time | Temp. | Humidity | Pressure | Rain* | Wind** | Luminosity | Snow |
|---|---|---|---|---|---|---|---|
| 1778003642 | 17.78° C | 52% | - | - | 0 m/s | - | - |
| 1778002743 | 18.89° C | 48% | - | - | 0 m/s | - | - |
| 1778001843 | 20° C | 44% | - | - | 0.89 m/s, 112° | - | - |
| 1778000943 | 20° C | 45% | - | - | 0.45 m/s, 90° | - | - |
| 1777999142 | 20.56° C | 43% | - | - | 0.89 m/s, 90° | - | - |
| 1777998244 | 20.56° C | 42% | - | - | 0.89 m/s, 67° | - | - |
| 1777997341 | 21.11° C | 44% | - | - | 0.45 m/s, 67° | - | - |
| 1777996441 | 20.56° C | 42% | - | - | 0.89 m/s, 112° | - | - |
| 1777995542 | 21.11° C | 42% | - | - | 0.45 m/s, 67° | - | - |
| 1777994643 | 21.67° C | 42% | - | - | 0.45 m/s, 67° | - | - |
| 1777993741 | 21.11° C | 44% | - | - | 0.45 m/s, 22° | - | - |
| 1777992844 | 21.67° C | 43% | - | - | 0.45 m/s, 112° | - | - |
| 1777991941 | 22.78° C | 42% | - | - | 1.34 m/s, 90° | - | - |
| 1777991043 | 21.67° C | 45% | - | - | 1.34 m/s, 45° | - | - |
| 1777990144 | 21.11° C | 44% | - | - | 1.34 m/s, 45° | - | - |
| 1777989242 | 21.67° C | 44% | - | - | 1.34 m/s, 67° | - | - |
| 1777988343 | 21.67° C | 45% | - | - | 0.89 m/s, 112° | - | - |
| 1777987442 | 21.11° C | 46% | - | - | 0.89 m/s, 112° | - | - |
| 1777986546 | 21.67° C | 44% | - | - | 0.45 m/s, 90° | - | - |
| 1777985643 | 22.78° C | 43% | - | - | 0.89 m/s, 225° | - | - |
| 1777984742 | 22.22° C | 44% | - | - | 0 m/s | - | - |
| 1777983846 | 23.89° C | 41% | - | - | 0.89 m/s, 67° | - | - |
| 1777982942 | 25° C | 39% | - | - | 1.34 m/s, 45° | - | - |
| 1777982043 | 23.89° C | 40% | - | - | 1.79 m/s, 45° | - | - |
| 1777981142 | 23.89° C | 41% | - | - | 0.89 m/s, 247° | - | - |
* Rain since midnight (hover to see other rain measurements)
** Current wind speed in m/s (hover to see current wind gust speed)